Time;durP1;ratioP1;P1;durP2;ratioP2;P2;SDS_P1;SDS_P2;PMS_P1;PMS_P2;Temp;Humidity;BMP_temperature;BMP_pressure;BME280_temperature;BME280_humidity;BME280_pressure;Samples;Min_cycle;Max_cycle;Signal;HPM_P1;HPM_P2
2021/06/02 00:02:15;;;;;;;5.05;3.03;;;16.40;88.00;;;;;;5008264;28;20038;-85
2021/06/02 00:04:44;;;;;;;5.05;3.60;;;16.40;87.90;;;;;;5014422;28;20081;-85
2021/06/02 00:07:13;;;;;;;4.10;3.28;;;16.30;87.90;;;;;;5014736;28;20049;-85
2021/06/02 00:09:38;;;;;;;4.18;3.10;;;16.30;88.10;;;;;;5021708;28;20070;-86
2021/06/02 00:12:07;;;;;;;5.05;2.90;;;16.30;88.40;;;;;;5015375;28;20077;-85
2021/06/02 00:14:33;;;;;;;5.20;3.20;;;16.30;88.60;;;;;;5013197;28;20034;-86
2021/06/02 00:16:59;;;;;;;5.05;3.55;;;16.20;88.70;;;;;;5001027;28;20078;-85
2021/06/02 00:19:25;;;;;;;7.63;3.53;;;16.20;89.00;;;;;;5013412;28;20106;-86
2021/06/02 00:21:51;;;;;;;7.00;3.63;;;16.20;89.30;;;;;;4999819;28;20030;-85
2021/06/02 00:24:17;;;;;;;4.45;3.38;;;16.20;89.40;;;;;;5012237;28;20026;-85
2021/06/02 00:26:44;;;;;;;4.65;3.15;;;16.20;89.30;;;;;;5011659;28;20058;-86
2021/06/02 00:29:11;;;;;;;4.10;3.20;;;16.20;89.50;;;;;;5011104;28;20034;-86
2021/06/02 00:31:44;;;;;;;4.20;3.50;;;16.10;89.60;;;;;;5001999;28;20102;-86
2021/06/02 00:34:09;;;;;;;;;;;16.10;89.80;;;;;;5015060;28;20124;-86
2021/06/02 00:36:39;;;;;;;5.50;3.95;;;16.10;89.80;;;;;;5011902;28;20213;-86
2021/06/02 00:39:07;;;;;;;5.13;3.38;;;16.10;89.90;;;;;;5007273;28;20045;-86
2021/06/02 00:41:35;;;;;;;6.22;3.45;;;16.10;90.20;;;;;;5006792;28;20037;-85
2021/06/02 00:44:04;;;;;;;6.53;3.80;;;16.10;90.00;;;;;;5013991;28;20131;-86
2021/06/02 00:46:31;;;;;;;5.03;3.35;;;16.10;90.20;;;;;;5011195;28;20046;-85
2021/06/02 00:49:00;;;;;;;6.53;3.10;;;16.10;90.20;;;;;;5003699;28;20076;-85
2021/06/02 00:51:25;;;;;;;4.40;3.33;;;16.10;90.30;;;;;;5013836;28;20037;-85
2021/06/02 00:53:54;;;;;;;5.65;3.25;;;16.10;90.40;;;;;;5013724;28;20044;-86
2021/06/02 00:56:28;;;;;;;8.13;4.50;;;16.10;90.30;;;;;;5003623;28;20116;-86
2021/06/02 00:58:58;;;;;;;6.80;3.40;;;16.10;90.30;;;;;;5026768;28;21338;-85
2021/06/02 01:01:23;;;;;;;5.40;4.03;;;16.10;90.50;;;;;;5011566;28;20640;-86
2021/06/02 01:03:49;;;;;;;3.88;3.13;;;16.20;90.50;;;;;;5011843;28;20048;-86
2021/06/02 01:06:16;;;;;;;7.55;3.63;;;16.10;90.60;;;;;;5008121;28;20103;-85
2021/06/02 01:08:44;;;;;;;5.85;3.42;;;16.20;90.50;;;;;;5011481;28;20030;-86
2021/06/02 01:11:10;;;;;;;4.82;3.58;;;16.20;90.60;;;;;;5005184;28;20416;-85
2021/06/02 01:13:41;;;;;;;5.95;3.50;;;16.20;90.50;;;;;;5015383;28;20035;-85
2021/06/02 01:16:08;;;;;;;4.75;3.30;;;16.10;90.50;;;;;;5014618;28;20041;-86
2021/06/02 01:18:35;;;;;;;4.82;3.53;;;16.20;90.60;;;;;;5002789;28;20037;-85
2021/06/02 01:21:01;;;;;;;4.72;3.47;;;16.10;90.60;;;;;;5015931;28;20046;-85
2021/06/02 01:23:27;;;;;;;6.63;3.78;;;16.10;90.60;;;;;;5009951;28;20038;-86
2021/06/02 01:25:53;;;;;;;7.28;4.10;;;16.20;90.70;;;;;;5006648;28;20066;-84
2021/06/02 01:28:19;;;;;;;5.47;3.35;;;16.20;90.70;;;;;;5002810;28;20100;-87
2021/06/02 01:30:44;;;;;;;5.50;3.72;;;16.20;90.80;;;;;;5002271;28;20053;-85
2021/06/02 01:33:25;;;;;;;6.47;4.03;;;16.10;90.70;;;;;;5037254;28;20040;-86
2021/06/02 01:36:25;;;;;;;5.97;3.85;;;16.20;90.70;;;;;;5015895;28;20044;-85
2021/06/02 01:39:28;;;;;;;6.80;3.85;;;16.20;90.70;;;;;;5013048;28;20124;-86
2021/06/02 01:42:22;;;;;;;5.00;3.55;;;16.20;90.50;;;;;;5003417;28;20065;-85
2021/06/02 01:45:22;;;;;;;6.22;3.72;;;16.20;90.60;;;;;;5012584;28;20038;-85
2021/06/02 01:48:38;;;;;;;6.50;4.50;;;16.20;90.80;;;;;;5029078;28;20444;-85
2021/06/02 01:51:43;;;;;;;6.18;4.43;;;16.20;90.80;;;;;;5002712;28;20093;-85
2021/06/02 01:54:30;;;;;;;6.68;4.53;;;16.20;90.90;;;;;;5009603;28;20033;-84
2021/06/02 01:57:30;;;;;;;5.13;4.20;;;16.20;90.80;;;;;;5008346;28;20432;-85
2021/06/02 02:00:32;;;;;;;5.38;3.75;;;16.20;90.80;;;;;;5002085;28;20030;-85
2021/06/02 02:03:35;;;;;;;7.97;4.00;;;16.20;90.60;;;;;;5007664;28;20045;-86
2021/06/02 02:06:26;;;;;;;7.18;3.75;;;16.20;90.60;;;;;;5032664;28;20049;-85
2021/06/02 02:09:13;;;;;;;8.57;4.22;;;16.20;90.80;;;;;;4993682;28;20058;-87
2021/06/02 02:11:41;;;;;;;4.45;3.80;;;16.20;90.80;;;;;;5006694;28;20046;-87
2021/06/02 02:14:45;;;;;;;4.70;3.83;;;16.20;90.80;;;;;;5017812;28;20041;-87
2021/06/02 02:17:37;;;;;;;6.03;3.88;;;16.20;90.90;;;;;;5006064;28;20059;-86
2021/06/02 02:20:16;;;;;;;5.13;3.88;;;16.20;90.90;;;;;;5005146;28;20577;-86
2021/06/02 02:23:12;;;;;;;5.30;3.95;;;16.20;90.90;;;;;;5017820;28;20601;-86
2021/06/02 02:26:13;;;;;;;8.02;4.60;;;16.20;91.30;;;;;;5002346;28;20108;-86
2021/06/02 02:29:07;;;;;;;6.53;4.30;;;16.20;91.00;;;;;;5006160;28;20050;-86
2021/06/02 02:31:43;;;;;;;5.50;3.85;;;16.20;91.10;;;;;;5010262;28;20045;-86
2021/06/02 02:34:24;;;;;;;5.82;4.50;;;16.10;90.90;;;;;;5010243;28;20046;-88
2021/06/02 02:37:02;;;;;;;7.90;4.55;;;16.20;91.10;;;;;;5013991;28;20160;-86
2021/06/02 02:39:40;;;;;;;6.90;4.63;;;16.20;91.30;;;;;;5004157;28;20417;-86
2021/06/02 02:42:24;;;;;;;5.10;4.28;;;16.20;91.10;;;;;;5015761;28;20054;-85
2021/06/02 02:45:09;;;;;;;5.78;3.95;;;16.20;91.10;;;;;;5022063;28;20037;-85
2021/06/02 02:47:43;;;;;;;6.20;4.13;;;16.20;91.10;;;;;;5011988;28;20244;-85
2021/06/02 02:50:22;;;;;;;5.47;4.15;;;16.20;91.10;;;;;;5009126;28;20038;-84
2021/06/02 02:53:05;;;;;;;6.07;4.15;;;16.20;91.20;;;;;;5015949;28;20033;-86
2021/06/02 02:55:35;;;;;;;5.72;3.83;;;16.20;91.10;;;;;;5006322;28;20038;-84
2021/06/02 02:58:30;;;;;;;6.25;3.63;;;16.20;91.00;;;;;;5004285;28;20103;-86
2021/06/02 03:01:15;;;;;;;6.05;4.43;;;16.20;91.00;;;;;;5015300;28;20380;-86
2021/06/02 03:03:48;;;;;;;9.05;5.07;;;16.20;91.10;;;;;;5008239;28;20045;-85
2021/06/02 03:06:25;;;;;;;7.38;4.22;;;16.10;91.20;;;;;;5010029;28;20042;-84
2021/06/02 03:09:03;;;;;;;6.85;4.63;;;16.10;91.30;;;;;;5002753;28;20332;-86
2021/06/02 03:11:43;;;;;;;5.20;4.28;;;16.10;91.40;;;;;;5011855;28;20057;-86
2021/06/02 03:14:36;;;;;;;5.65;4.07;;;16.10;91.30;;;;;;5018571;28;20062;-85
2021/06/02 03:17:10;;;;;;;6.35;4.07;;;16.10;91.20;;;;;;5018953;28;20049;-86
2021/06/02 03:19:49;;;;;;;8.05;5.07;;;16.10;91.30;;;;;;5008273;28;20133;-86
2021/06/02 03:22:19;;;;;;;5.78;4.25;;;16.10;91.50;;;;;;5006367;28;20034;-85
2021/06/02 03:25:18;;;;;;;5.60;4.38;;;16.10;91.70;;;;;;5008248;28;20034;-86
2021/06/02 03:28:09;;;;;;;6.25;5.00;;;16.10;91.80;;;;;;5008640;28;21456;-85
2021/06/02 03:30:39;;;;;;;6.53;4.90;;;16.00;91.80;;;;;;5022386;28;20038;-85
2021/06/02 03:33:37;;;;;;;5.18;4.47;;;16.00;92.00;;;;;;5014797;28;20038;-85
2021/06/02 03:36:02;;;;;;;8.80;4.88;;;16.00;91.90;;;;;;5004207;28;20038;-86
2021/06/02 03:39:10;;;;;;;9.27;4.95;;;16.00;92.00;;;;;;5000789;28;20056;-84
2021/06/02 03:41:59;;;;;;;6.28;4.60;;;16.00;92.00;;;;;;5013266;28;20057;-86
2021/06/02 03:44:58;;;;;;;12.40;5.47;;;16.00;92.10;;;;;;5003652;28;20069;-87
2021/06/02 03:48:01;;;;;;;8.85;5.40;;;16.00;92.20;;;;;;5005743;28;20445;-86
2021/06/02 03:50:42;;;;;;;7.15;5.00;;;16.00;92.10;;;;;;5016888;28;20047;-85
2021/06/02 03:53:37;;;;;;;8.07;4.68;;;16.00;92.00;;;;;;5000306;28;20053;-86
2021/06/02 03:56:08;;;;;;;8.60;5.40;;;16.00;92.10;;;;;;5009525;28;20069;-86
2021/06/02 03:58:52;;;;;;;6.32;4.93;;;16.00;92.20;;;;;;5013686;28;20070;-85
2021/06/02 04:01:28;;;;;;;7.95;5.10;;;16.10;92.10;;;;;;5009461;28;20095;-86
2021/06/02 04:04:05;;;;;;;6.93;4.95;;;16.10;92.20;;;;;;5021007;28;20088;-85
2021/06/02 04:06:53;;;;;;;7.10;4.80;;;16.10;91.80;;;;;;5011292;28;20040;-85
2021/06/02 04:09:24;;;;;;;9.57;5.25;;;16.10;91.90;;;;;;5012888;28;20088;-86
2021/06/02 04:12:04;;;;;;;8.60;5.32;;;16.20;92.10;;;;;;5015267;28;20443;-85
2021/06/02 04:14:34;;;;;;;6.22;4.63;;;16.20;92.10;;;;;;5002602;28;20634;-85
2021/06/02 04:17:01;;;;;;;5.53;4.50;;;16.20;92.20;;;;;;5028260;28;20437;-85
2021/06/02 04:19:35;;;;;;;7.93;5.43;;;16.20;92.00;;;;;;5007198;28;20034;-84
2021/06/02 04:22:04;;;;;;;8.70;5.07;;;16.20;92.10;;;;;;5008736;28;20120;-86
2021/06/02 04:24:32;;;;;;;7.43;4.97;;;16.20;92.20;;;;;;5010994;28;20070;-86
2021/06/02 04:26:59;;;;;;;9.82;5.72;;;16.30;92.20;;;;;;5003456;28;20042;-85
2021/06/02 04:29:26;;;;;;;8.23;5.47;;;16.30;92.20;;;;;;5012981;28;20048;-85
2021/06/02 04:31:54;;;;;;;7.43;5.10;;;16.30;92.10;;;;;;5012061;28;20034;-85
2021/06/02 04:34:21;;;;;;;8.38;5.13;;;16.30;92.00;;;;;;5023959;28;20034;-85
2021/06/02 04:36:50;;;;;;;7.13;5.13;;;16.30;92.30;;;;;;5017552;28;20115;-85
2021/06/02 04:39:18;;;;;;;8.90;5.25;;;16.40;92.30;;;;;;5013534;28;20045;-85
2021/06/02 04:41:44;;;;;;;6.55;4.53;;;16.50;92.40;;;;;;5015063;28;20038;-84
2021/06/02 04:44:13;;;;;;;7.82;4.78;;;16.40;91.80;;;;;;5002801;28;20297;-85
2021/06/02 04:46:40;;;;;;;6.95;4.97;;;16.60;91.60;;;;;;5006548;28;20050;-85
2021/06/02 04:49:05;;;;;;;13.05;5.45;;;16.50;91.70;;;;;;5004736;28;20050;-84
2021/06/02 04:52:02;;;;;;;9.50;5.68;;;16.60;92.00;;;;;;5006071;28;20045;-85
2021/06/02 04:54:46;;;;;;;7.13;4.65;;;16.60;92.10;;;;;;5015528;28;20049;-85
2021/06/02 04:57:23;;;;;;;9.85;5.55;;;16.60;91.80;;;;;;5012205;28;20046;-85
2021/06/02 05:00:04;;;;;;;10.95;5.28;;;16.60;91.80;;;;;;5002652;28;20046;-86
2021/06/02 05:02:57;;;;;;;11.13;5.18;;;16.70;91.80;;;;;;5011043;28;20038;-86
2021/06/02 05:05:48;;;;;;;11.32;5.00;;;16.70;91.80;;;;;;4995823;28;20432;-87
2021/06/02 05:08:49;;;;;;;9.45;5.10;;;16.80;91.90;;;;;;4997099;28;20042;-86
2021/06/02 05:11:39;;;;;;;10.13;5.78;;;16.80;91.90;;;;;;4997426;28;20176;-85
2021/06/02 05:14:41;;;;;;;7.40;5.32;;;16.80;91.80;;;;;;5009441;28;20104;-87
2021/06/02 05:17:07;;;;;;;7.68;5.03;;;16.90;91.40;;;;;;5003538;28;20686;-86
2021/06/02 05:22:46;;;;;;;9.50;4.90;;;17.00;91.80;;;;;;5000349;28;20133;-86
2021/06/02 05:25:34;;;;;;;9.63;5.15;;;17.00;91.50;;;;;;5030615;28;20056;-85
2021/06/02 05:28:19;;;;;;;10.88;4.95;;;17.10;91.60;;;;;;5017320;28;20042;-86
2021/06/02 05:31:22;;;;;;;7.78;5.53;;;17.20;91.30;;;;;;5007608;28;20038;-84
2021/06/02 05:34:12;;;;;;;5.82;4.63;;;17.20;91.00;;;;;;5012158;28;20177;-84
2021/06/02 05:37:00;;;;;;;6.88;4.53;;;17.40;90.90;;;;;;4999618;28;20034;-85
2021/06/02 05:40:07;;;;;;;7.97;4.85;;;17.40;91.20;;;;;;4996958;28;20030;-85
2021/06/02 05:43:02;;;;;;;6.53;4.10;;;17.50;91.10;;;;;;4997188;28;20121;-83
2021/06/02 05:45:52;;;;;;;7.65;4.30;;;17.60;90.90;;;;;;5006516;28;20057;-85
2021/06/02 05:49:07;;;;;;;4.75;3.65;;;17.70;90.60;;;;;;5007395;28;20053;-85
2021/06/02 05:52:10;;;;;;;7.72;4.68;;;17.80;90.80;;;;;;5023173;28;20405;-84
2021/06/02 05:55:01;;;;;;;14.98;4.65;;;17.90;90.00;;;;;;5015103;28;20073;-84
2021/06/02 05:57:26;;;;;;;8.20;3.95;;;18.00;89.80;;;;;;5016615;28;20044;-85
2021/06/02 06:00:28;;;;;;;5.63;4.28;;;18.10;88.10;;;;;;5028665;28;20038;-84
2021/06/02 06:03:16;;;;;;;8.70;4.05;;;18.20;88.90;;;;;;5031839;28;20042;-84
2021/06/02 06:06:22;;;;;;;5.47;3.70;;;18.30;88.20;;;;;;5011912;28;20129;-84
2021/06/02 06:09:09;;;;;;;6.15;3.63;;;18.40;87.00;;;;;;5006222;28;20057;-85
2021/06/02 06:12:06;;;;;;;5.97;3.45;;;18.50;87.60;;;;;;5013384;28;20038;-84
2021/06/02 06:14:53;;;;;;;5.68;4.30;;;18.60;87.30;;;;;;5010276;28;20038;-85
2021/06/02 06:17:47;;;;;;;6.47;3.28;;;18.70;86.90;;;;;;5017285;28;20171;-85
2021/06/02 06:20:42;;;;;;;6.40;4.18;;;18.80;86.70;;;;;;5025324;28;20034;-85
2021/06/02 06:23:23;;;;;;;4.70;3.72;;;19.00;84.60;;;;;;4998720;28;20044;-86
2021/06/02 06:26:00;;;;;;;4.85;3.90;;;19.10;84.40;;;;;;5016405;28;20192;-85
2021/06/02 06:28:42;;;;;;;6.82;3.08;;;19.10;83.60;;;;;;5003129;28;20038;-86
2021/06/02 06:31:14;;;;;;;6.40;3.90;;;19.20;84.20;;;;;;5012499;28;20399;-85
2021/06/02 06:33:41;;;;;;;7.03;4.00;;;19.30;83.30;;;;;;5017936;28;20309;-86
2021/06/02 06:36:09;;;;;;;7.40;3.47;;;19.50;83.50;;;;;;5022063;28;20102;-83
2021/06/02 06:38:51;;;;;;;5.90;4.13;;;19.60;83.50;;;;;;5011469;28;20435;-86
2021/06/02 06:41:20;;;;;;;4.90;3.17;;;19.80;82.80;;;;;;5017607;28;20061;-86
2021/06/02 06:43:47;;;;;;;5.63;3.60;;;19.90;82.30;;;;;;5007601;28;20042;-85
2021/06/02 06:46:16;;;;;;;4.95;3.08;;;20.00;79.90;;;;;;5005376;28;20046;-85
2021/06/02 06:48:45;;;;;;;4.47;2.70;;;20.10;78.90;;;;;;5010867;28;20052;-84
2021/06/02 06:51:14;;;;;;;15.90;4.32;;;20.20;79.70;;;;;;5029491;28;20038;-87
2021/06/02 06:53:40;;;;;;;4.90;3.03;;;20.20;79.50;;;;;;5018202;28;20103;-85
2021/06/02 06:56:09;;;;;;;5.32;3.88;;;20.30;78.50;;;;;;5013186;28;20038;-85
2021/06/02 06:58:35;;;;;;;4.80;3.22;;;20.30;77.90;;;;;;5008122;28;20425;-85
2021/06/02 07:01:02;;;;;;;6.13;3.40;;;20.40;78.10;;;;;;5007138;28;20314;-83
2021/06/02 07:03:28;;;;;;;14.27;4.18;;;20.40;79.30;;;;;;5017583;28;20408;-84
2021/06/02 07:05:55;;;;;;;4.45;2.78;;;20.50;78.80;;;;;;5008045;28;20042;-85
2021/06/02 07:08:20;;;;;;;5.38;3.00;;;20.50;77.20;;;;;;5007995;28;20044;-84
2021/06/02 07:10:46;;;;;;;5.85;2.88;;;20.60;77.50;;;;;;5008748;28;20129;-85
2021/06/02 07:13:14;;;;;;;6.50;3.47;;;20.60;77.60;;;;;;5000741;28;20044;-84
2021/06/02 07:15:40;;;;;;;4.63;3.20;;;20.60;78.10;;;;;;5016991;28;20056;-85
2021/06/02 07:18:06;;;;;;;5.22;2.70;;;20.70;78.10;;;;;;5011916;28;20045;-84
2021/06/02 07:20:34;;;;;;;8.02;2.53;;;20.70;78.10;;;;;;4999477;28;20038;-86
2021/06/02 07:23:01;;;;;;;7.28;3.78;;;20.70;78.30;;;;;;5006805;28;20046;-85
2021/06/02 07:25:28;;;;;;;3.88;2.85;;;20.80;77.60;;;;;;4999732;28;20042;-85
2021/06/02 07:27:55;;;;;;;4.65;3.30;;;20.90;78.70;;;;;;5010708;28;20033;-85
2021/06/02 07:30:25;;;;;;;5.20;3.42;;;21.00;78.10;;;;;;5006092;28;20057;-86
2021/06/02 07:32:50;;;;;;;3.47;2.85;;;21.10;77.90;;;;;;5001413;28;20072;-85
2021/06/02 07:35:16;;;;;;;10.57;2.65;;;21.10;76.00;;;;;;4998208;28;20486;-86
2021/06/02 07:37:41;;;;;;;3.75;2.58;;;21.10;76.70;;;;;;5005855;28;20049;-86
2021/06/02 07:40:08;;;;;;;3.97;2.42;;;21.10;75.00;;;;;;5009426;28;20043;-86
2021/06/02 07:42:34;;;;;;;4.97;2.42;;;21.20;75.80;;;;;;5003322;28;20046;-86
2021/06/02 07:45:00;;;;;;;14.30;4.13;;;21.20;74.20;;;;;;5014641;28;20133;-86
2021/06/02 07:47:25;;;;;;;4.03;2.20;;;21.30;76.10;;;;;;4997709;28;20121;-85
2021/06/02 07:49:51;;;;;;;4.82;3.03;;;21.30;74.00;;;;;;4998864;28;20042;-85
2021/06/02 07:52:17;;;;;;;5.40;2.30;;;21.40;73.00;;;;;;4997505;28;20038;-85
2021/06/02 07:54:42;;;;;;;4.88;2.45;;;21.50;73.30;;;;;;4997422;28;20137;-87
2021/06/02 07:57:08;;;;;;;4.63;2.63;;;21.50;74.00;;;;;;5013713;28;20049;-87
2021/06/02 07:59:34;;;;;;;3.50;2.13;;;21.60;72.90;;;;;;4998145;28;20393;-86
2021/06/02 08:02:02;;;;;;;4.35;2.30;;;21.60;73.30;;;;;;4997646;28;20104;-86
2021/06/02 08:04:27;;;;;;;5.97;2.30;;;21.70;73.60;;;;;;4998079;28;20034;-87
2021/06/02 08:06:53;;;;;;;7.85;2.38;;;21.80;72.00;;;;;;4998501;28;20156;-85
2021/06/02 08:09:19;;;;;;;4.32;2.00;;;21.80;73.20;;;;;;4998330;28;20177;-86
2021/06/02 08:11:45;;;;;;;4.03;2.15;;;21.80;71.20;;;;;;5007105;28;20313;-85
2021/06/02 08:14:11;;;;;;;3.00;2.38;;;21.80;70.70;;;;;;5007958;28;20133;-86
2021/06/02 08:16:36;;;;;;;3.28;1.73;;;21.70;70.20;;;;;;4998329;28;20709;-85
2021/06/02 08:19:02;;;;;;;5.35;2.15;;;21.70;70.40;;;;;;4998215;28;20037;-86
2021/06/02 08:21:28;;;;;;;3.88;2.60;;;21.70;70.60;;;;;;4997844;28;20330;-85
2021/06/02 08:23:54;;;;;;;3.80;2.30;;;21.70;71.50;;;;;;4997961;28;20124;-86
2021/06/02 08:26:19;;;;;;;5.60;2.20;;;21.70;70.80;;;;;;5003543;28;20038;-86
2021/06/02 08:28:44;;;;;;;6.43;2.40;;;21.70;72.00;;;;;;5016911;28;20559;-86
2021/06/02 08:31:10;;;;;;;30.40;8.27;;;21.80;72.10;;;;;;5017399;28;20044;-85
2021/06/02 08:33:36;;;;;;;21.63;4.78;;;21.90;73.20;;;;;;5016869;28;20313;-86
2021/06/02 08:36:01;;;;;;;11.60;2.90;;;22.10;72.90;;;;;;5016556;28;20034;-85
2021/06/02 08:38:27;;;;;;;27.30;5.75;;;22.30;70.40;;;;;;5016529;28;20073;-85
2021/06/02 08:40:52;;;;;;;7.18;1.67;;;22.70;69.60;;;;;;5017567;28;20117;-86
2021/06/02 08:43:20;;;;;;;4.40;1.70;;;23.10;65.70;;;;;;5016660;28;20048;-86
2021/06/02 08:45:49;;;;;;;10.88;2.78;;;23.30;64.70;;;;;;5022180;28;20046;-85
2021/06/02 08:48:15;;;;;;;4.75;1.58;;;23.40;65.60;;;;;;5022707;28;20045;-86
2021/06/02 08:50:41;;;;;;;4.68;1.70;;;23.50;63.00;;;;;;5016175;28;20034;-86
2021/06/02 08:53:07;;;;;;;2.33;1.20;;;23.50;64.70;;;;;;5015957;28;20037;-87
2021/06/02 08:55:33;;;;;;;1.63;1.38;;;23.60;63.00;;;;;;5016062;28;20037;-87
2021/06/02 08:57:59;;;;;;;2.10;1.35;;;23.70;64.50;;;;;;5016097;28;20065;-85
2021/06/02 09:00:26;;;;;;;3.47;1.52;;;23.80;65.50;;;;;;5016297;28;20140;-88
2021/06/02 09:02:56;;;;;;;2.88;1.38;;;23.90;64.60;;;;;;5017300;28;20125;-87
2021/06/02 09:05:23;;;;;;;3.08;1.70;;;24.00;62.70;;;;;;5016011;28;20155;-87
2021/06/02 09:07:52;;;;;;;3.60;1.38;;;24.20;62.90;;;;;;5016905;28;20156;-86
2021/06/02 09:10:18;;;;;;;6.00;2.10;;;24.40;62.30;;;;;;5016913;28;20034;-87
2021/06/02 09:12:45;;;;;;;3.95;1.50;;;24.50;60.20;;;;;;5015121;28;20476;-87
2021/06/02 09:15:16;;;;;;;2.90;1.58;;;24.70;61.30;;;;;;5015597;28;20042;-87
2021/06/02 09:17:53;;;;;;;2.08;1.08;;;24.80;57.10;;;;;;5016347;28;20041;-86
2021/06/02 09:20:42;;;;;;;2.22;1.00;;;25.00;57.00;;;;;;5019554;28;20076;-85
2021/06/02 09:23:37;;;;;;;2.55;1.00;;;25.20;59.60;;;;;;5028439;28;20382;-84
2021/06/02 09:26:17;;;;;;;2.38;1.10;;;25.40;54.90;;;;;;5021348;28;20078;-86
2021/06/02 09:28:45;;;;;;;1.52;1.00;;;25.50;59.20;;;;;;5019997;28;20052;-86
2021/06/02 09:31:28;;;;;;;2.28;1.00;;;25.60;57.20;;;;;;5019589;28;20413;-86
2021/06/02 09:33:56;;;;;;;2.05;1.13;;;25.60;54.40;;;;;;5019357;28;20041;-85
2021/06/02 09:36:30;;;;;;;3.35;0.88;;;25.70;56.50;;;;;;5020455;28;20448;-87
2021/06/02 09:38:59;;;;;;;3.30;1.35;;;25.80;54.40;;;;;;5019373;28;20045;-86
2021/06/02 09:41:25;;;;;;;3.33;1.38;;;26.00;56.10;;;;;;5019574;28;20034;-86
2021/06/02 09:43:51;;;;;;;1.65;1.00;;;26.00;55.10;;;;;;5019645;28;20133;-86
2021/06/02 09:46:17;;;;;;;3.28;1.02;;;26.10;54.30;;;;;;5020230;28;20121;-86
2021/06/02 09:48:48;;;;;;;2.10;1.35;;;26.20;52.90;;;;;;5019646;28;20095;-86
2021/06/02 09:51:37;;;;;;;2.05;1.17;;;26.30;51.20;;;;;;5020686;28;20042;-88
2021/06/02 09:54:08;;;;;;;1.77;1.05;;;26.30;53.60;;;;;;5020409;28;20077;-85
2021/06/02 09:56:44;;;;;;;2.25;1.13;;;26.30;55.40;;;;;;5031624;28;20045;-86
2021/06/02 09:59:12;;;;;;;1.40;1.10;;;26.40;52.80;;;;;;5021237;28;20049;-88
2021/06/02 10:01:58;;;;;;;2.90;1.15;;;26.40;52.80;;;;;;5020806;28;20420;-88
2021/06/02 10:04:34;;;;;;;2.05;1.17;;;26.50;54.10;;;;;;5020093;28;20405;-87
2021/06/02 10:07:01;;;;;;;2.80;1.25;;;26.70;56.00;;;;;;5020280;28;20038;-88
2021/06/02 10:09:35;;;;;;;8.02;1.45;;;26.70;53.40;;;;;;5020183;28;20114;-87
2021/06/02 10:12:08;;;;;;;3.53;1.40;;;26.80;54.00;;;;;;5020175;28;20342;-89
2021/06/02 10:14:34;;;;;;;;;;;26.90;58.50;;;;;;5020608;28;20053;-88
2021/06/02 10:17:01;;;;;;;4.30;1.25;;;27.00;55.80;;;;;;5019688;28;19937;-88
2021/06/02 10:19:43;;;;;;;1.20;0.90;;;27.20;57.20;;;;;;5020679;28;20034;-87
2021/06/02 10:22:24;;;;;;;1.70;1.13;;;27.30;55.10;;;;;;5024229;28;20041;-85
2021/06/02 10:24:51;;;;;;;3.83;1.50;;;27.40;50.70;;;;;;5044258;28;20042;-84
2021/06/02 10:27:19;;;;;;;3.13;1.20;;;27.50;52.80;;;;;;5025731;28;20037;-85
2021/06/02 10:29:44;;;;;;;2.45;1.52;;;27.50;52.30;;;;;;5022469;28;20025;-86
2021/06/02 10:32:10;;;;;;;1.98;1.20;;;27.70;51.20;;;;;;5032383;28;20077;-86
2021/06/02 10:34:35;;;;;;;2.47;1.10;;;27.70;50.60;;;;;;5019472;28;20033;-87
2021/06/02 10:37:01;;;;;;;4.10;1.30;;;27.70;52.10;;;;;;5019718;28;20045;-86
2021/06/02 10:39:30;;;;;;;2.10;1.35;;;27.80;48.90;;;;;;5019272;28;20099;-86
2021/06/02 10:42:01;;;;;;;4.18;1.20;;;27.90;52.50;;;;;;5019570;28;20034;-86
2021/06/02 10:44:35;;;;;;;5.25;1.60;;;27.90;49.30;;;;;;5020151;28;20046;-87
2021/06/02 10:47:01;;;;;;;2.15;1.38;;;27.90;53.80;;;;;;5018659;28;20049;-87
2021/06/02 10:49:34;;;;;;;3.20;0.80;;;27.80;46.90;;;;;;5018536;28;20405;-86
2021/06/02 10:52:00;;;;;;;2.47;1.17;;;27.70;49.70;;;;;;5019464;28;20068;-86
2021/06/02 10:54:30;;;;;;;2.67;1.60;;;27.60;51.90;;;;;;5018188;28;20038;-87
2021/06/02 10:56:58;;;;;;;3.03;1.17;;;27.60;51.60;;;;;;5018466;28;20041;-87
2021/06/02 10:59:35;;;;;;;3.58;1.25;;;27.70;52.10;;;;;;5019552;28;20037;-86
2021/06/02 11:02:11;;;;;;;1.88;1.10;;;27.70;49.20;;;;;;5023147;28;20034;-86
2021/06/02 11:04:39;;;;;;;1.75;1.20;;;27.70;47.00;;;;;;5018229;28;20413;-87
2021/06/02 11:07:15;;;;;;;3.78;1.25;;;27.70;54.10;;;;;;5027768;28;20038;-87
2021/06/02 11:10:01;;;;;;;1.75;1.08;;;27.80;50.10;;;;;;5024454;28;20029;-86
2021/06/02 11:12:47;;;;;;;2.50;0.98;;;27.90;50.50;;;;;;5019554;28;20048;-86
2021/06/02 11:15:31;;;;;;;2.78;1.33;;;28.00;49.70;;;;;;5018080;28;20368;-87
2021/06/02 11:18:09;;;;;;;5.25;1.15;;;28.00;48.70;;;;;;5018350;28;20037;-87
2021/06/02 11:20:51;;;;;;;5.13;1.60;;;28.00;48.80;;;;;;5018467;28;20046;-87
2021/06/02 11:23:19;;;;;;;2.17;1.52;;;28.10;49.50;;;;;;5034249;28;20044;-87
2021/06/02 11:25:46;;;;;;;3.38;1.40;;;28.20;49.30;;;;;;5018171;28;20046;-87
2021/06/02 11:28:48;;;;;;;1.90;1.35;;;28.20;46.10;;;;;;5018433;28;20053;-86
2021/06/02 11:31:19;;;;;;;2.42;1.25;;;28.20;46.50;;;;;;5016812;28;20038;-87
2021/06/02 11:33:44;;;;;;;2.60;1.77;;;28.30;49.20;;;;;;5014495;28;20037;-87
2021/06/02 11:36:10;;;;;;;2.67;1.48;;;28.40;51.80;;;;;;5018014;28;20034;-87
2021/06/02 11:38:37;;;;;;;2.05;1.30;;;28.50;49.00;;;;;;5018238;28;20037;-88
2021/06/02 11:41:03;;;;;;;3.75;1.52;;;28.50;47.40;;;;;;5019371;28;20120;-87
2021/06/02 11:43:29;;;;;;;2.63;1.50;;;28.50;48.90;;;;;;5029731;28;20049;-88
2021/06/02 11:45:56;;;;;;;2.45;1.50;;;28.60;45.70;;;;;;5023984;28;20344;-87
2021/06/02 11:48:24;;;;;;;3.72;1.00;;;28.60;47.50;;;;;;5019270;28;20121;-86
2021/06/02 11:50:50;;;;;;;4.97;1.17;;;28.50;48.40;;;;;;5017671;28;20447;-87
2021/06/02 11:53:16;;;;;;;4.00;1.10;;;28.50;46.40;;;;;;5018111;28;20038;-87
2021/06/02 11:55:42;;;;;;;1.60;1.50;;;28.50;46.00;;;;;;5018055;28;20120;-86
2021/06/02 11:58:08;;;;;;;2.67;1.58;;;28.50;46.00;;;;;;5018334;28;20064;-86
2021/06/02 12:00:34;;;;;;;2.47;1.50;;;28.50;49.80;;;;;;5017451;28;20042;-86
2021/06/02 12:03:11;;;;;;;8.73;1.48;;;28.60;48.00;;;;;;5017509;28;20321;-86
2021/06/02 12:05:40;;;;;;;2.35;1.50;;;28.60;49.90;;;;;;5034541;28;20132;-87
2021/06/02 12:08:14;;;;;;;4.72;2.38;;;28.70;47.80;;;;;;5018201;28;20072;-87
2021/06/02 12:10:43;;;;;;;2.88;1.80;;;28.80;51.10;;;;;;5017860;28;20052;-86
2021/06/02 12:13:19;;;;;;;3.50;1.60;;;29.00;50.60;;;;;;5017607;28;20286;-86
2021/06/02 12:15:52;;;;;;;1.63;1.13;;;29.10;47.10;;;;;;5019026;28;20048;-87
2021/06/02 12:18:43;;;;;;;3.92;2.05;;;29.00;47.40;;;;;;5048130;28;20116;-88
2021/06/02 12:21:28;;;;;;;1.60;1.33;;;29.00;49.60;;;;;;5018038;28;20125;-88
2021/06/02 12:24:02;;;;;;;2.67;1.30;;;28.90;50.70;;;;;;5017722;28;20041;-87
2021/06/02 12:26:36;;;;;;;5.45;1.80;;;28.80;46.60;;;;;;5017000;28;20393;-86
2021/06/02 12:29:11;;;;;;;2.70;2.00;;;28.80;48.40;;;;;;5017043;28;20041;-87
2021/06/02 12:31:38;;;;;;;3.03;1.50;;;28.80;48.70;;;;;;5017020;28;20068;-87
2021/06/02 12:34:13;;;;;;;1.60;1.50;;;28.90;49.50;;;;;;5017237;28;20038;-88
2021/06/02 12:36:47;;;;;;;2.85;1.42;;;29.10;49.00;;;;;;5018042;28;20049;-87
2021/06/02 12:39:16;;;;;;;3.90;2.15;;;29.10;48.00;;;;;;5020218;28;20092;-86
2021/06/02 12:41:44;;;;;;;1.88;1.48;;;29.10;48.30;;;;;;5017902;28;20037;-87
2021/06/02 12:44:11;;;;;;;2.38;1.83;;;28.90;48.00;;;;;;5017116;28;20029;-86
2021/06/02 12:46:36;;;;;;;4.28;1.65;;;28.70;51.30;;;;;;5016795;28;20034;-87
2021/06/02 12:49:09;;;;;;;3.67;1.65;;;28.50;47.30;;;;;;5019100;28;20034;-87
2021/06/02 12:51:38;;;;;;;5.30;1.42;;;28.40;47.40;;;;;;5029533;28;20056;-85
2021/06/02 12:54:04;;;;;;;2.08;1.45;;;28.40;47.60;;;;;;5020651;28;20049;-87
2021/06/02 12:56:29;;;;;;;5.00;1.58;;;28.50;48.40;;;;;;5017603;28;20452;-87
2021/06/02 12:58:58;;;;;;;4.25;1.42;;;28.60;49.70;;;;;;5016602;28;20133;-88
2021/06/02 13:01:32;;;;;;;4.93;1.80;;;28.70;49.50;;;;;;5017052;28;20033;-86
2021/06/02 13:04:00;;;;;;;2.35;1.35;;;28.80;46.90;;;;;;5016223;28;20401;-86
2021/06/02 13:06:29;;;;;;;2.42;1.50;;;28.80;49.10;;;;;;5030869;28;20034;-85
2021/06/02 13:08:56;;;;;;;2.03;1.60;;;28.90;49.00;;;;;;5019494;28;20077;-87
2021/06/02 13:11:30;;;;;;;1.58;1.15;;;29.00;47.40;;;;;;5016276;28;20041;-88
2021/06/02 13:13:58;;;;;;;2.40;1.77;;;29.20;49.10;;;;;;5016287;28;20305;-88
2021/06/02 13:16:24;;;;;;;1.88;1.20;;;29.30;53.40;;;;;;5016170;28;20056;-88
2021/06/02 13:19:01;;;;;;;3.05;1.40;;;29.40;49.10;;;;;;5017342;28;20038;-86
2021/06/02 13:21:29;;;;;;;3.17;1.73;;;29.50;47.00;;;;;;5017053;28;20113;-87
2021/06/02 13:24:15;;;;;;;2.70;1.20;;;29.60;47.90;;;;;;5016680;28;20037;-86
2021/06/02 13:26:51;;;;;;;1.48;1.20;;;29.60;46.60;;;;;;5016688;28;20034;-86
2021/06/02 13:29:18;;;;;;;2.30;1.95;;;29.70;45.90;;;;;;5017906;28;20118;-86
2021/06/02 13:31:47;;;;;;;2.22;1.20;;;29.80;49.50;;;;;;5017367;28;20037;-86